createdAt,value
2023-01-21T00:01:28.083Z,100330.25
2023-01-21T00:03:55.876Z,100322.55
2023-01-21T00:06:23.314Z,100320.02
2023-01-21T00:08:50.822Z,100318.50
2023-01-21T00:11:18.892Z,100317.27
2023-01-21T00:13:46.629Z,100322.10
2023-01-21T00:16:15.388Z,100323.67
2023-01-21T00:18:43.169Z,100327.94
2023-01-21T00:21:10.780Z,100330.86
2023-01-21T00:23:38.395Z,100324.31
2023-01-21T00:26:07.223Z,100330.70
2023-01-21T00:28:35.731Z,100330.36
2023-01-21T00:31:05.092Z,100330.17
2023-01-21T00:33:32.992Z,100328.52
2023-01-21T00:36:30.028Z,100324.71
2023-01-21T00:38:57.850Z,100324.78
2023-01-21T00:41:25.714Z,100325.16
2023-01-21T00:43:53.500Z,100325.50
2023-01-21T00:46:21.147Z,100323.80
2023-01-21T00:48:48.749Z,100326.52
2023-01-21T00:51:16.388Z,100326.77
2023-01-21T00:53:44.054Z,100325.98
2023-01-21T00:56:12.755Z,100330.84
2023-01-21T00:58:40.772Z,100333.06
2023-01-21T01:01:10.375Z,100331.23
2023-01-21T01:03:38.197Z,100331.68
2023-01-21T01:06:10.686Z,100334.29
2023-01-21T01:08:38.403Z,100338.86
2023-01-21T01:11:06.332Z,100336.45
2023-01-21T01:13:34.868Z,100340.91
2023-01-21T01:16:03.130Z,100339.27
2023-01-21T01:18:32.963Z,100339.71
2023-01-21T01:21:00.510Z,100336.37
2023-01-21T01:23:28.222Z,100331.44
2023-01-21T01:26:06.814Z,100327.17
2023-01-21T01:28:34.750Z,100320.16
2023-01-21T01:31:04.950Z,100316.58
2023-01-21T01:33:32.753Z,100312.13
2023-01-21T01:36:08.693Z,100307.27
2023-01-21T01:38:36.308Z,100306.02
2023-01-21T01:41:03.902Z,100294.55
2023-01-21T01:44:06.135Z,100298.91
2023-01-21T01:46:36.587Z,100298.66
2023-01-21T01:49:16.496Z,100298.58
2023-01-21T01:51:47.277Z,100307.79
2023-01-21T01:54:17.688Z,100301.13
2023-01-21T01:56:46.611Z,100298.27
2023-01-21T01:59:14.160Z,100304.77
2023-01-21T02:01:41.882Z,100299.69
2023-01-21T02:04:12.849Z,100305.55
2023-01-21T02:06:40.428Z,100302.70
2023-01-21T02:09:08.747Z,100299.23
2023-01-21T02:11:36.882Z,100301.81
2023-01-21T02:14:04.424Z,100304.13
2023-01-21T02:16:35.300Z,100302.09
2023-01-21T02:19:17.475Z,100302.11
2023-01-21T02:21:50.832Z,100302.67
2023-01-21T02:24:36.832Z,100296.73
2023-01-21T02:27:30.713Z,100301.39
2023-01-21T02:30:20.357Z,100295.67
2023-01-21T02:33:07.531Z,100291.95
2023-01-21T02:35:57.634Z,100293.42
2023-01-21T02:38:36.431Z,100299.67
2023-01-21T02:41:12.431Z,100305.83
2023-01-21T02:43:58.074Z,100320.53
2023-01-21T02:46:40.910Z,100326.80
2023-01-21T02:49:47.132Z,100331.20
2023-01-21T02:52:19.172Z,100332.07
2023-01-21T02:55:00.927Z,100341.04
2023-01-21T02:57:36.910Z,100346.40
2023-01-21T03:00:12.308Z,100354.29
2023-01-21T03:03:14.767Z,100352.36
2023-01-21T03:05:55.567Z,100350.23
2023-01-21T03:08:25.449Z,100359.42
2023-01-21T03:11:17.000Z,100354.11
2023-01-21T03:14:36.221Z,100347.06
2023-01-21T03:17:35.030Z,100348.48
2023-01-21T03:20:39.313Z,100347.41
2023-01-21T03:23:10.031Z,100347.13
2023-01-21T03:25:38.240Z,100345.01
2023-01-21T03:28:08.389Z,100341.65
2023-01-21T03:30:36.014Z,100334.27
2023-01-21T03:33:03.658Z,100346.27
2023-01-21T03:35:36.964Z,100331.64
2023-01-21T03:38:26.233Z,100322.24
2023-01-21T03:41:15.168Z,100329.72
2023-01-21T03:43:42.830Z,100347.25
2023-01-21T03:46:35.125Z,100337.42
2023-01-21T03:49:34.385Z,100322.77
2023-01-21T03:52:02.082Z,100317.11
2023-01-21T03:54:29.584Z,100318.95
2023-01-21T03:56:57.148Z,100334.50
2023-01-21T03:59:24.661Z,100344.73
2023-01-21T04:01:52.208Z,100340.72
2023-01-21T04:04:19.775Z,100309.97
2023-01-21T04:06:47.365Z,100309.64
2023-01-21T04:09:15.016Z,100325.80
2023-01-21T04:11:42.569Z,100323.61
2023-01-21T04:14:10.085Z,100327.77
2023-01-21T04:16:37.765Z,100323.99
2023-01-21T04:19:05.746Z,100323.47
2023-01-21T04:21:33.448Z,100329.15
2023-01-21T04:24:01.162Z,100325.41
2023-01-21T04:26:28.675Z,100339.05
2023-01-21T04:28:56.269Z,100353.71
2023-01-21T04:31:23.984Z,100340.89
2023-01-21T04:33:51.632Z,100355.96
2023-01-21T04:36:19.489Z,100353.79
2023-01-21T04:38:46.983Z,100348.25
2023-01-21T04:41:14.584Z,100347.17
2023-01-21T04:43:42.112Z,100342.32
2023-01-21T04:46:09.625Z,100347.10
2023-01-21T04:48:37.648Z,100347.21
2023-01-21T04:51:06.816Z,100366.08
2023-01-21T04:53:34.447Z,100373.64
2023-01-21T04:56:02.350Z,100361.82
2023-01-21T04:58:30.036Z,100361.40
2023-01-21T05:00:57.660Z,100366.21
2023-01-21T05:03:25.346Z,100358.70
2023-01-21T05:05:52.893Z,100362.36
2023-01-21T05:08:20.605Z,100369.48
2023-01-21T05:10:48.426Z,100369.41
2023-01-21T05:13:16.055Z,100358.23
2023-01-21T05:15:43.643Z,100373.48
2023-01-21T05:18:11.367Z,100368.77
2023-01-21T05:20:38.943Z,100365.70
2023-01-21T05:23:06.733Z,100366.05
2023-01-21T05:25:34.402Z,100364.89
2023-01-21T05:28:02.685Z,100359.13
2023-01-21T05:30:30.488Z,100367.25
2023-01-21T05:32:58.113Z,100361.46
2023-01-21T05:35:25.757Z,100367.88
2023-01-21T05:37:53.445Z,100368.80
2023-01-21T05:40:21.230Z,100368.52
2023-01-21T05:42:48.949Z,100366.46
2023-01-21T05:45:16.679Z,100363.49
2023-01-21T05:47:44.341Z,100364.88
2023-01-21T05:50:12.474Z,100358.14
2023-01-21T05:52:40.578Z,100362.72
2023-01-21T05:55:09.781Z,100362.77
2023-01-21T05:57:37.656Z,100365.98
2023-01-21T06:00:06.585Z,100368.10
2023-01-21T06:02:35.331Z,100376.82
2023-01-21T06:05:03.221Z,100379.63
2023-01-21T06:07:30.852Z,100381.22
2023-01-21T06:09:58.739Z,100383.66
2023-01-21T06:12:26.867Z,100376.31
2023-01-21T06:14:54.548Z,100370.15
2023-01-21T06:17:23.594Z,100363.80
2023-01-21T06:19:51.120Z,100362.80
2023-01-21T06:22:19.370Z,100369.34
2023-01-21T06:24:48.056Z,100373.30
2023-01-21T06:27:16.056Z,100375.73
2023-01-21T06:29:46.943Z,100375.29
2023-01-21T06:32:18.131Z,100376.45
2023-01-21T06:34:46.719Z,100382.66
2023-01-21T06:37:15.399Z,100385.71
2023-01-21T06:39:43.433Z,100377.74
2023-01-21T06:42:11.233Z,100371.09
2023-01-21T06:44:38.805Z,100374.30
2023-01-21T06:47:06.843Z,100367.73
2023-01-21T06:49:34.714Z,100370.79
2023-01-21T06:52:02.723Z,100381.72
2023-01-21T06:54:30.949Z,100382.55
2023-01-21T06:56:59.134Z,100375.58
2023-01-21T06:59:27.291Z,100384.20
2023-01-21T07:01:55.999Z,100391.88
2023-01-21T07:04:24.009Z,100391.96
2023-01-21T07:06:52.085Z,100393.05
2023-01-21T07:09:20.598Z,100385.23
2023-01-21T07:11:49.846Z,100384.88
2023-01-21T07:14:18.385Z,100391.27
2023-01-21T07:16:46.989Z,100394.77
2023-01-21T07:19:15.772Z,100395.55
2023-01-21T07:21:44.053Z,100398.95
2023-01-21T07:24:12.723Z,100408.11
2023-01-21T07:26:42.119Z,100405.82
2023-01-21T07:29:10.800Z,100417.23
2023-01-21T07:31:39.420Z,100427.39
2023-01-21T07:34:07.602Z,100439.64
2023-01-21T07:36:35.733Z,100446.13
2023-01-21T07:39:04.126Z,100445.50
2023-01-21T07:41:32.492Z,100445.36
2023-01-21T07:44:00.876Z,100439.32
2023-01-21T07:46:28.653Z,100447.27
2023-01-21T07:48:57.837Z,100450.91
2023-01-21T07:51:26.240Z,100452.13
2023-01-21T07:53:56.814Z,100458.88
2023-01-21T07:56:27.044Z,100464.20
2023-01-21T07:58:55.735Z,100465.42
2023-01-21T08:01:27.432Z,100469.58
2023-01-21T08:03:55.053Z,100472.63
2023-01-21T08:06:22.914Z,100477.23
2023-01-21T08:08:50.983Z,100481.48
2023-01-21T08:11:18.846Z,100487.36
2023-01-21T08:13:47.435Z,100492.48
2023-01-21T08:16:15.697Z,100495.13
2023-01-21T11:59:19.251Z,100612.17
2023-01-21T12:02:04.504Z,100619.42
2023-01-21T12:04:32.000Z,100614.98
2023-01-21T12:07:00.245Z,100606.94
2023-01-21T12:09:28.148Z,100608.70
2023-01-21T12:12:31.442Z,100604.05
2023-01-21T12:14:59.029Z,100616.85
2023-01-21T12:17:51.848Z,100625.04
2023-01-21T12:20:47.438Z,100629.48
2023-01-21T12:23:39.403Z,100633.50
2023-01-21T12:26:39.068Z,100638.70
2023-01-21T12:29:38.345Z,100646.89
2023-01-21T12:32:11.676Z,100653.30
2023-01-21T12:35:10.652Z,100647.58
2023-01-21T12:37:47.971Z,100649.27
2023-01-21T12:40:32.081Z,100652.37
2023-01-21T12:43:16.450Z,100646.20
2023-01-21T12:45:51.769Z,100655.11
2023-01-21T12:48:42.417Z,100659.38
2023-01-21T12:51:12.085Z,100668.86
2023-01-21T12:53:54.209Z,100672.64
2023-01-21T12:56:43.473Z,100679.33
2023-01-21T12:59:23.491Z,100688.92
2023-01-21T13:02:20.516Z,100693.04
2023-01-21T13:05:01.584Z,100703.34
2023-01-21T13:08:14.501Z,100705.56
2023-01-21T13:10:45.290Z,100706.15
2023-01-21T13:13:51.325Z,100704.89
2023-01-21T13:16:18.725Z,100704.21
2023-01-21T13:18:52.956Z,100700.94
2023-01-21T13:21:36.223Z,100691.77
2023-01-21T13:24:16.852Z,100687.30
2023-01-21T13:26:51.010Z,100695.02
2023-01-21T13:29:31.741Z,100698.46
2023-01-21T13:32:10.758Z,100703.08
2023-01-21T13:34:57.429Z,100706.38
2023-01-21T13:37:37.078Z,100710.35
2023-01-21T13:40:35.423Z,100719.11
2023-01-21T13:43:24.436Z,100720.05
2023-01-21T13:46:00.309Z,100714.56
2023-01-21T13:49:03.428Z,100714.27
2023-01-21T13:51:42.675Z,100708.23
2023-01-21T13:54:48.067Z,100708.89
2023-01-21T13:57:43.439Z,100727.77
2023-01-21T14:00:19.841Z,100736.52
2023-01-21T14:02:53.961Z,100742.15
2023-01-21T14:05:30.238Z,100742.92
2023-01-21T14:08:12.280Z,100740.58
2023-01-21T14:10:44.202Z,100744.38
2023-01-21T14:13:18.318Z,100751.16
2023-01-21T14:15:51.699Z,100758.61
2023-01-21T14:18:22.038Z,100768.42
2023-01-21T14:21:15.122Z,100778.02
2023-01-21T14:24:07.378Z,100788.33
2023-01-21T14:26:42.857Z,100789.02
2023-01-21T14:29:46.346Z,100801.00
2023-01-21T14:32:41.214Z,100799.34
2023-01-21T14:35:13.719Z,100801.73
2023-01-21T14:37:44.285Z,100805.04
2023-01-21T14:40:32.313Z,100809.70
2023-01-21T14:42:59.789Z,100816.34
2023-01-21T14:45:49.379Z,100826.77
2023-01-21T14:48:33.915Z,100830.23
2023-01-21T14:51:07.736Z,100832.52
2023-01-21T14:53:49.889Z,100830.56
2023-01-21T14:56:26.899Z,100832.34
2023-01-21T14:59:09.523Z,100828.04
2023-01-21T15:01:41.816Z,100825.20
2023-01-21T15:04:29.920Z,100830.19
2023-01-21T15:07:13.620Z,100833.96
2023-01-21T15:09:43.317Z,100832.49
2023-01-21T15:12:17.482Z,100838.11
2023-01-21T15:14:46.320Z,100839.61
2023-01-21T15:17:51.609Z,100838.69
2023-01-21T15:20:51.759Z,100847.80
2023-01-21T15:23:31.680Z,100846.29
2023-01-21T15:26:11.999Z,100845.32
2023-01-21T15:28:48.899Z,100847.26
2023-01-21T15:31:25.355Z,100848.32
2023-01-21T15:33:59.026Z,100858.34
2023-01-21T15:36:32.579Z,100867.45
2023-01-21T15:39:23.559Z,100868.21
2023-01-21T15:42:20.919Z,100874.29
2023-01-21T15:45:07.267Z,100874.27
2023-01-21T15:48:04.459Z,100880.90
2023-01-21T15:50:41.839Z,100884.85
2023-01-21T15:53:21.769Z,100885.85
2023-01-21T15:55:54.151Z,100887.46
2023-01-21T15:59:00.668Z,100889.66
2023-01-21T16:01:38.500Z,100890.94
2023-01-21T16:04:19.546Z,100891.38
2023-01-21T16:06:54.338Z,100892.57
2023-01-21T19:51:47.791Z,101184.19
2023-01-21T19:54:15.941Z,101190.25
2023-01-21T19:56:43.334Z,101183.95
2023-01-21T19:59:13.236Z,101183.69
2023-01-21T20:01:49.852Z,101182.77
2023-01-21T20:04:19.550Z,101184.20
2023-01-21T20:06:49.833Z,101186.98
2023-01-21T20:09:20.022Z,101185.86
2023-01-21T20:11:47.598Z,101182.80
2023-01-21T20:14:15.728Z,101181.39
2023-01-21T20:16:45.575Z,101190.56
2023-01-21T20:19:14.363Z,101189.91
2023-01-21T20:21:59.685Z,101189.48
2023-01-21T20:24:29.891Z,101195.14
2023-01-21T20:26:58.415Z,101196.31
2023-01-21T20:29:28.656Z,101199.52
2023-01-21T20:31:56.564Z,101210.21
2023-01-21T20:34:26.361Z,101209.77
2023-01-21T20:36:54.685Z,101213.21
2023-01-21T20:39:22.416Z,101215.09
2023-01-21T20:41:49.993Z,101218.40
2023-01-21T20:44:18.542Z,101222.59
2023-01-21T20:46:47.814Z,101223.05
2023-01-21T20:49:15.428Z,101230.94
2023-01-21T20:51:43.869Z,101228.33
2023-01-21T20:54:12.088Z,101228.98
2023-01-21T20:56:40.292Z,101232.11
2023-01-21T20:59:08.939Z,101237.23
2023-01-21T21:01:39.170Z,101240.58
2023-01-21T21:04:06.630Z,101242.98
2023-01-21T21:06:34.913Z,101245.46
2023-01-21T21:09:02.627Z,101248.70
2023-01-21T21:11:30.922Z,101245.70
2023-01-21T21:14:01.559Z,101245.91
2023-01-21T21:16:31.656Z,101247.41
2023-01-21T21:19:01.331Z,101250.48
2023-01-21T21:21:29.282Z,101246.38
2023-01-21T21:23:56.957Z,101246.29
2023-01-21T21:26:27.100Z,101247.60
2023-01-21T21:28:55.222Z,101255.75
2023-01-21T21:31:23.421Z,101257.52
2023-01-21T21:33:51.152Z,101260.55
2023-01-21T21:36:19.930Z,101256.55
2023-01-21T21:38:49.022Z,101260.33
2023-01-21T21:41:36.288Z,101258.55
2023-01-21T21:44:07.842Z,101257.90
2023-01-21T21:46:55.495Z,101267.07
2023-01-21T21:49:23.744Z,101267.64
2023-01-21T21:51:51.401Z,101271.61
2023-01-21T21:54:20.789Z,101271.59
2023-01-21T21:56:48.195Z,101269.98
2023-01-21T21:59:17.360Z,101271.68
2023-01-21T22:01:47.483Z,101277.97
2023-01-21T22:04:15.397Z,101280.02
2023-01-21T22:06:42.947Z,101284.02
2023-01-21T22:09:11.426Z,101283.33
2023-01-21T22:11:39.238Z,101281.55
2023-01-21T22:14:07.588Z,101280.55
2023-01-21T22:16:35.045Z,101283.13
2023-01-21T22:19:02.631Z,101289.46
2023-01-21T22:21:32.489Z,101288.80
2023-01-21T22:24:03.612Z,101295.16
2023-01-21T22:26:32.009Z,101300.30
2023-01-21T22:28:59.479Z,101305.85
2023-01-21T22:31:31.972Z,101304.98
2023-01-21T22:34:00.018Z,101309.48
2023-01-21T22:36:29.201Z,101307.76
2023-01-21T22:38:57.183Z,101308.73
2023-01-21T22:41:25.741Z,101312.73
2023-01-21T22:43:53.608Z,101309.10
2023-01-21T22:46:30.296Z,101305.77
2023-01-21T22:48:58.457Z,101301.73
2023-01-21T22:51:26.361Z,101301.99
2023-01-21T22:53:53.949Z,101306.65
2023-01-21T22:56:39.855Z,101308.23
2023-01-21T22:59:11.550Z,101312.39
2023-01-21T23:01:41.067Z,101316.81
2023-01-21T23:04:08.513Z,101321.45
2023-01-21T23:06:37.655Z,101322.71
2023-01-21T23:09:06.749Z,101324.05
2023-01-21T23:11:36.918Z,101326.06
2023-01-21T23:14:04.160Z,101328.21
2023-01-21T23:16:31.387Z,101332.39
2023-01-21T23:18:58.745Z,101335.04
2023-01-21T23:21:26.468Z,101342.14
2023-01-21T23:23:54.038Z,101346.19
2023-01-21T23:26:22.373Z,101349.80
2023-01-21T23:28:53.570Z,101349.48
2023-01-21T23:31:23.310Z,101356.11
2023-01-21T23:33:51.724Z,101358.54
2023-01-21T23:36:19.553Z,101361.34
2023-01-21T23:38:48.563Z,101368.41
2023-01-21T23:41:16.546Z,101365.81
2023-01-21T23:43:43.788Z,101372.71
2023-01-21T23:46:14.148Z,101376.20
2023-01-21T23:48:42.018Z,101378.71
